createdAt,value
2023-04-25T00:01:05.986Z,100451.13
2023-04-25T00:03:33.378Z,100447.63
2023-04-25T00:06:03.332Z,100446.13
2023-04-25T00:08:31.291Z,100444.97
2023-04-25T00:10:58.380Z,100447.94
2023-04-25T00:13:26.416Z,100458.38
2023-04-25T00:15:54.152Z,100447.44
2023-04-25T00:18:21.098Z,100456.22
2023-04-25T00:20:48.390Z,100459.22
2023-04-25T00:23:19.124Z,100455.56
2023-04-25T00:25:46.165Z,100447.31
2023-04-25T00:28:13.344Z,100447.31
2023-04-25T00:30:40.937Z,100437.41
2023-04-25T00:33:07.742Z,100452.75
2023-04-25T00:35:35.187Z,100448.78
2023-04-25T00:38:01.869Z,100443.66
2023-04-25T00:40:28.820Z,100446.44
2023-04-25T00:42:55.467Z,100446.59
2023-04-25T00:45:22.294Z,100455.22
2023-04-25T00:47:48.901Z,100453.91
2023-04-25T00:50:16.567Z,100451.59
2023-04-25T00:52:45.311Z,100445.97
2023-04-25T00:55:13.362Z,100449.28
2023-04-25T00:57:40.906Z,100455.41
2023-04-25T01:00:08.508Z,100439.88
2023-04-25T01:02:36.722Z,100457.41
2023-04-25T01:05:04.479Z,100467.84
2023-04-25T01:07:31.296Z,100462.09
2023-04-25T01:09:57.834Z,100467.53
2023-04-25T01:12:24.630Z,100466.72
2023-04-25T01:14:51.293Z,100463.91
2023-04-25T01:17:19.873Z,100472.50
2023-04-25T01:19:49.209Z,100461.59
2023-04-25T01:22:16.179Z,100459.28
2023-04-25T01:24:42.773Z,100465.09
2023-04-25T01:27:09.538Z,100474.81
2023-04-25T01:29:37.136Z,100475.00
2023-04-25T01:32:04.432Z,100470.38
2023-04-25T01:34:31.146Z,100480.63
2023-04-25T01:37:00.000Z,100469.88
2023-04-25T01:39:26.810Z,100468.06
2023-04-25T01:41:53.276Z,100478.63
2023-04-25T01:44:19.927Z,100477.31
2023-04-25T01:46:46.597Z,100481.44
2023-04-25T01:49:14.237Z,100464.72
2023-04-25T01:51:41.076Z,100474.97
2023-04-25T01:54:09.000Z,100483.25
2023-04-25T01:56:38.539Z,100465.72
2023-04-25T01:59:06.519Z,100490.38
2023-04-25T02:01:33.476Z,100493.03
2023-04-25T02:04:00.155Z,100486.56
2023-04-25T02:06:26.899Z,100498.97
2023-04-25T02:08:53.335Z,100483.91
2023-04-25T02:11:19.729Z,100497.81
2023-04-25T02:13:46.265Z,100488.03
2023-04-25T02:16:12.780Z,100482.91
2023-04-25T02:18:40.118Z,100489.03
2023-04-25T02:21:07.551Z,100487.38
2023-04-25T02:23:34.237Z,100494.66
2023-04-25T02:26:00.859Z,100493.69
2023-04-25T02:28:27.334Z,100490.03
2023-04-25T02:30:54.307Z,100500.28
2023-04-25T02:33:22.048Z,100505.44
2023-04-25T02:35:48.930Z,100498.50
2023-04-25T02:38:15.717Z,100504.81
2023-04-25T02:40:42.401Z,100516.56
2023-04-25T02:43:08.998Z,100519.53
2023-04-25T02:45:36.128Z,100516.06
2023-04-25T02:48:04.096Z,100519.56
2023-04-25T02:50:30.562Z,100529.50
2023-04-25T02:52:57.123Z,100529.81
2023-04-25T02:55:24.699Z,100526.19
2023-04-25T02:57:52.167Z,100518.06
2023-04-25T03:00:18.611Z,100526.66
2023-04-25T03:02:45.198Z,100532.97
2023-04-25T03:05:11.697Z,100525.53
2023-04-25T03:07:40.269Z,100531.97
2023-04-25T03:10:08.390Z,100530.97
2023-04-25T03:12:34.874Z,100530.31
2023-04-25T03:15:01.358Z,100521.53
2023-04-25T03:17:28.878Z,100528.31
2023-04-25T03:19:56.226Z,100528.47
2023-04-25T03:22:22.887Z,100528.16
2023-04-25T03:24:49.321Z,100522.34
2023-04-25T03:27:15.813Z,100527.13
2023-04-25T03:29:42.334Z,100534.94
2023-04-25T03:32:08.889Z,100530.47
2023-04-25T03:34:35.767Z,100541.22
2023-04-25T03:37:02.400Z,100534.75
2023-04-25T03:39:28.865Z,100521.00
2023-04-25T03:41:55.984Z,100538.22
2023-04-25T03:44:22.547Z,100541.53
2023-04-25T03:46:49.036Z,100551.31
2023-04-25T03:49:17.890Z,100546.00
2023-04-25T03:51:45.692Z,100538.56
2023-04-25T03:54:12.178Z,100544.03
2023-04-25T03:56:38.709Z,100549.00
2023-04-25T03:59:05.177Z,100554.78
2023-04-25T04:01:31.856Z,100555.97
2023-04-25T04:03:58.817Z,100555.13
2023-04-25T04:06:26.590Z,100557.59
2023-04-25T04:08:53.140Z,100578.44
2023-04-25T04:11:19.683Z,100584.69
2023-04-25T04:13:46.152Z,100572.47
2023-04-25T04:16:12.713Z,100573.59
2023-04-25T04:18:39.251Z,100562.31
2023-04-25T04:21:06.134Z,100580.72
2023-04-25T04:23:32.630Z,100586.00
2023-04-25T04:25:59.175Z,100581.38
2023-04-25T04:28:26.289Z,100587.31
2023-04-25T04:30:53.817Z,100587.31
2023-04-25T04:33:20.681Z,100589.78
2023-04-25T04:35:47.891Z,100572.06
2023-04-25T04:38:16.546Z,100583.31
2023-04-25T04:40:47.190Z,100582.66
2023-04-25T04:43:14.314Z,100595.22
2023-04-25T04:45:41.320Z,100586.94
2023-04-25T04:48:07.864Z,100582.16
2023-04-25T04:50:34.904Z,100588.09
2023-04-25T04:53:01.418Z,100587.94
2023-04-25T04:55:27.951Z,100592.09
2023-04-25T04:57:54.808Z,100600.91
2023-04-25T05:00:21.910Z,100607.22
2023-04-25T05:02:48.986Z,100608.06
2023-04-25T05:05:15.528Z,100605.41
2023-04-25T05:07:41.924Z,100608.56
2023-04-25T05:10:09.110Z,100605.06
2023-04-25T05:12:37.206Z,100619.59
2023-04-25T05:15:04.080Z,100611.31
2023-04-25T05:17:30.599Z,100603.16
2023-04-25T05:19:57.077Z,100616.75
2023-04-25T05:22:23.826Z,100630.84
2023-04-25T05:24:50.426Z,100648.56
2023-04-25T05:27:18.716Z,100656.88
2023-04-25T05:29:45.861Z,100661.88
2023-04-25T05:32:12.436Z,100659.16
2023-04-25T05:34:39.047Z,100669.72
2023-04-25T05:37:05.771Z,100668.00
2023-04-25T05:39:32.269Z,100647.72
2023-04-25T05:41:58.669Z,100673.06
2023-04-25T05:44:25.337Z,100674.31
2023-04-25T05:46:51.839Z,100675.75
2023-04-25T05:49:19.595Z,100672.75
2023-04-25T05:51:46.207Z,100687.38
2023-04-25T05:54:12.650Z,100688.56
2023-04-25T05:56:39.057Z,100690.06
2023-04-25T05:59:05.953Z,100685.09
2023-04-25T06:01:32.397Z,100675.31
2023-04-25T06:03:59.144Z,100694.03
2023-04-25T06:06:27.825Z,100693.56
2023-04-25T06:08:54.480Z,100697.91
2023-04-25T06:11:22.054Z,100683.38
2023-04-25T06:13:48.683Z,100683.09
2023-04-25T06:16:15.555Z,100701.69
2023-04-25T06:18:42.271Z,100693.94
2023-04-25T06:21:08.728Z,100690.50
2023-04-25T06:23:35.377Z,100699.50
2023-04-25T06:26:01.873Z,100695.53
2023-04-25T06:28:28.506Z,100698.72
2023-04-25T06:30:54.942Z,100703.19
2023-04-25T06:33:22.490Z,100701.53
2023-04-25T06:35:48.971Z,100701.38
2023-04-25T06:38:16.490Z,100695.59
2023-04-25T06:40:42.954Z,100694.25
2023-04-25T06:43:09.326Z,100693.94
2023-04-25T06:45:35.838Z,100703.69
2023-04-25T06:48:02.347Z,100711.84
2023-04-25T06:50:28.983Z,100704.88
2023-04-25T06:52:55.532Z,100704.22
2023-04-25T06:55:21.982Z,100707.22
2023-04-25T06:57:48.404Z,100715.50
2023-04-25T07:00:15.323Z,100710.19
2023-04-25T07:02:43.536Z,100705.22
2023-04-25T07:05:10.474Z,100710.38
2023-04-25T07:07:37.207Z,100719.63
2023-04-25T07:10:03.918Z,100713.00
2023-04-25T07:12:30.672Z,100712.00
2023-04-25T07:14:57.066Z,100717.47
2023-04-25T07:17:23.609Z,100715.34
2023-04-25T07:19:50.052Z,100713.03
2023-04-25T07:22:16.567Z,100713.81
2023-04-25T07:24:43.052Z,100717.66
2023-04-25T07:27:09.465Z,100720.97
2023-04-25T07:29:38.100Z,100722.59
2023-04-25T07:32:05.761Z,100723.09
2023-04-25T07:34:33.119Z,100728.19
2023-04-25T07:37:00.384Z,100724.88
2023-04-25T07:39:27.388Z,100724.38
2023-04-25T07:41:55.360Z,100728.69
2023-04-25T07:44:22.123Z,100733.63
2023-04-25T07:46:48.639Z,100740.41
2023-04-25T07:49:15.320Z,100743.38
2023-04-25T07:51:42.131Z,100733.44
2023-04-25T07:54:08.566Z,100755.53
2023-04-25T07:56:49.284Z,100752.56
2023-04-25T07:59:18.862Z,100760.41
2023-04-25T08:01:45.257Z,100768.03
2023-04-25T08:04:12.315Z,100764.00
2023-04-25T08:06:39.176Z,100771.47
2023-04-25T08:09:05.721Z,100770.19
2023-04-25T08:11:33.297Z,100774.13
2023-04-25T08:13:59.839Z,100775.81
2023-04-25T08:16:26.498Z,100771.59
2023-04-25T08:18:53.342Z,100775.75
2023-04-25T08:21:22.193Z,100774.59
2023-04-25T08:23:48.633Z,100798.50
2023-04-25T08:26:16.426Z,100809.66
2023-04-25T08:28:42.854Z,100811.81
2023-04-25T08:31:09.330Z,100827.72
2023-04-25T08:33:35.746Z,100828.38
2023-04-25T08:36:02.239Z,100835.00
2023-04-25T08:38:28.672Z,100839.50
2023-04-25T08:40:56.384Z,100840.28
2023-04-25T08:43:24.443Z,100825.56
2023-04-25T08:45:54.544Z,100830.25
2023-04-25T08:48:22.341Z,100842.19
2023-04-25T08:50:54.009Z,100888.28
2023-04-25T08:53:28.267Z,100887.28
2023-04-25T08:55:56.825Z,100905.88
2023-04-25T08:58:24.288Z,100903.06
2023-04-25T09:00:52.632Z,100898.09
2023-04-25T09:03:19.953Z,100908.03
2023-04-25T09:05:46.949Z,100930.81
2023-04-25T09:08:13.402Z,100923.47
2023-04-25T09:10:41.123Z,100923.28
2023-04-25T09:13:13.642Z,100927.03
2023-04-25T09:15:52.337Z,100931.09
2023-04-25T09:18:31.145Z,100916.41
2023-04-25T09:21:14.984Z,100930.75
2023-04-25T09:23:47.681Z,100919.69
2023-04-25T09:26:21.703Z,100944.03
2023-04-25T09:28:51.166Z,100931.28
2023-04-25T09:31:27.108Z,100932.28
2023-04-25T09:34:01.981Z,100932.78
2023-04-25T09:36:30.891Z,100934.25
2023-04-25T09:39:00.432Z,100924.91
2023-04-25T09:41:26.848Z,100927.94
2023-04-25T09:43:58.113Z,100917.91
2023-04-25T09:46:26.327Z,100923.41
2023-04-25T09:48:54.706Z,100919.44
2023-04-25T09:51:21.549Z,100896.06
2023-04-25T09:53:51.892Z,100923.13
2023-04-25T09:56:20.900Z,100895.28
2023-04-25T09:58:48.520Z,100921.34
2023-04-25T10:01:17.421Z,100918.03
2023-04-25T10:03:44.736Z,100913.97
2023-04-25T10:06:15.365Z,100927.91
2023-04-25T10:08:42.929Z,100934.72
2023-04-25T10:11:10.262Z,100941.19
2023-04-25T10:13:37.386Z,100937.03
2023-04-25T10:16:05.908Z,100927.91
2023-04-25T10:18:33.639Z,100936.38
2023-04-25T10:21:05.599Z,100944.25
2023-04-25T10:23:35.334Z,100933.78
2023-04-25T10:26:02.482Z,100948.88
2023-04-25T10:28:29.467Z,100942.56
2023-04-25T10:31:08.273Z,100945.63
2023-04-25T10:33:36.095Z,100938.69
2023-04-25T10:36:23.678Z,100951.94
2023-04-25T10:38:51.864Z,100945.81
2023-04-25T10:41:20.702Z,100953.63
2023-04-25T10:43:48.504Z,100952.72
2023-04-25T10:46:25.374Z,100957.88
2023-04-25T10:48:59.472Z,100947.22
2023-04-25T10:51:30.807Z,100955.38
2023-04-25T10:54:04.245Z,100945.38
2023-04-25T10:56:36.867Z,100956.50
2023-04-25T10:59:13.469Z,100950.13
2023-04-25T11:01:48.133Z,100943.97
2023-04-25T11:04:31.904Z,100941.94
2023-04-25T11:07:08.417Z,100942.31
2023-04-25T11:09:46.472Z,100940.88
2023-04-25T11:12:14.252Z,100954.72
2023-04-25T11:17:12.870Z,100962.72
2023-04-25T11:19:39.495Z,100950.75
2023-04-25T11:22:07.111Z,100960.50
2023-04-25T11:24:35.857Z,100959.16
2023-04-25T11:27:07.026Z,100958.88
2023-04-25T11:29:35.262Z,100959.63
2023-04-25T11:32:03.343Z,100967.94
2023-04-25T11:34:31.871Z,100957.22
2023-04-25T11:36:58.683Z,100963.91
2023-04-25T11:39:26.247Z,100955.84
2023-04-25T11:41:53.370Z,100966.88
2023-04-25T11:44:20.711Z,100965.09
2023-04-25T11:46:48.239Z,100967.16
2023-04-25T11:49:15.858Z,100984.56
2023-04-25T11:51:47.393Z,100979.97
2023-04-25T11:54:14.119Z,100981.53
2023-04-25T11:56:47.328Z,100990.09
2023-04-25T11:59:14.360Z,101005.69
2023-04-25T12:01:49.725Z,100993.47
2023-04-25T12:04:17.719Z,100990.19
2023-04-25T12:06:47.605Z,101008.53
2023-04-25T12:09:15.361Z,101017.09
2023-04-25T12:11:46.157Z,101003.25
2023-04-25T12:14:13.907Z,101016.63
2023-04-25T12:16:45.363Z,101009.38
2023-04-25T12:19:16.006Z,101010.22
2023-04-25T12:21:56.553Z,101001.69
2023-04-25T12:24:26.827Z,101007.84
2023-04-25T12:27:06.524Z,101011.50
2023-04-25T12:29:48.455Z,100996.91
2023-04-25T12:32:16.380Z,101018.63
2023-04-25T12:34:43.175Z,101022.81
2023-04-25T12:37:09.609Z,101020.50
2023-04-25T12:39:36.249Z,101033.47
2023-04-25T12:42:03.324Z,101031.94
2023-04-25T12:44:29.996Z,101037.69
2023-04-25T12:46:56.615Z,101042.00
2023-04-25T12:49:23.392Z,101044.88
2023-04-25T12:51:50.298Z,101048.66
2023-04-25T12:54:18.816Z,101050.50
2023-04-25T12:56:45.359Z,101050.69
2023-04-25T12:59:11.916Z,101056.00
2023-04-25T13:01:38.758Z,101058.28
2023-04-25T13:04:05.534Z,101056.25
2023-04-25T13:06:32.269Z,101034.47
2023-04-25T13:08:58.850Z,101061.53
2023-04-25T13:11:25.569Z,101061.38
2023-04-25T13:13:52.144Z,101054.84
2023-04-25T13:16:21.804Z,101056.03
2023-04-25T13:18:48.501Z,101052.50
2023-04-25T13:21:14.996Z,101054.81
2023-04-25T13:23:42.762Z,101042.66
2023-04-25T13:26:09.550Z,101046.28
2023-04-25T13:28:36.103Z,101058.13
2023-04-25T13:31:02.572Z,101068.00
2023-04-25T13:33:29.911Z,101066.50
2023-04-25T13:35:58.032Z,101071.00
2023-04-25T13:38:26.286Z,101045.22
2023-04-25T13:40:53.681Z,101066.81
2023-04-25T13:43:22.736Z,101069.00
2023-04-25T13:45:52.678Z,101051.56
2023-04-25T13:48:20.366Z,101059.06
2023-04-25T13:50:47.032Z,101068.47
2023-04-25T13:53:13.857Z,101067.13
2023-04-25T13:55:40.890Z,101069.97
2023-04-25T13:58:11.017Z,101050.69
2023-04-25T14:00:39.963Z,101065.81
2023-04-25T14:03:08.983Z,101065.94
2023-04-25T14:05:41.097Z,101067.75
2023-04-25T14:08:09.354Z,101066.97
2023-04-25T14:10:36.614Z,101063.69
2023-04-25T14:13:04.264Z,101080.97
2023-04-25T14:15:34.720Z,101076.31
2023-04-25T14:18:01.886Z,101063.47
2023-04-25T14:20:29.062Z,101068.13
2023-04-25T14:22:57.082Z,101074.59
2023-04-25T14:25:24.316Z,101066.56
2023-04-25T14:27:51.191Z,101073.34
2023-04-25T14:30:22.189Z,101051.75
2023-04-25T14:32:50.832Z,101064.88
2023-04-25T14:35:17.800Z,101049.34
2023-04-25T14:37:44.400Z,101069.28
2023-04-25T14:40:11.841Z,101068.78
2023-04-25T14:42:38.756Z,101078.13
2023-04-25T14:45:08.179Z,101037.78
2023-04-25T14:47:36.037Z,101075.44
2023-04-25T14:50:03.481Z,101081.22
2023-04-25T14:52:30.059Z,101066.94
2023-04-25T14:54:56.534Z,101079.25
2023-04-25T14:57:23.009Z,101097.53
2023-04-25T14:59:49.406Z,101085.47
2023-04-25T15:02:15.957Z,101091.16
2023-04-25T15:04:42.806Z,101076.06
2023-04-25T15:07:09.670Z,101075.88
2023-04-25T15:09:36.082Z,101079.06
2023-04-25T15:12:03.444Z,101079.22
2023-04-25T15:14:30.078Z,101086.06
2023-04-25T15:16:56.676Z,101092.19
2023-04-25T15:19:23.296Z,101090.56
2023-04-25T15:21:49.928Z,101095.34
2023-04-25T15:24:16.570Z,101106.81
2023-04-25T15:26:43.039Z,101096.69
2023-04-25T15:29:09.514Z,101097.34
2023-04-25T15:31:36.148Z,101101.69
2023-04-25T15:34:03.348Z,101099.19
2023-04-25T15:36:30.009Z,101091.84
2023-04-25T15:38:56.765Z,101087.88
2023-04-25T15:41:23.202Z,101082.06
2023-04-25T15:43:50.155Z,101093.56
2023-04-25T15:46:16.924Z,101090.41
2023-04-25T15:48:43.478Z,101083.56
2023-04-25T15:51:10.558Z,101104.84
2023-04-25T15:53:37.385Z,101094.69
2023-04-25T15:56:04.657Z,101092.38
2023-04-25T15:58:31.263Z,101103.34
2023-04-25T16:00:57.883Z,101098.19
2023-04-25T16:03:24.735Z,101105.88
2023-04-25T16:05:51.417Z,101116.50
2023-04-25T16:08:17.900Z,101113.63
2023-04-25T16:10:44.324Z,101121.47
2023-04-25T16:13:11.647Z,101109.66
2023-04-25T16:15:38.720Z,101112.34
2023-04-25T16:18:05.494Z,101107.16
2023-04-25T16:20:32.403Z,101116.63
2023-04-25T16:22:59.275Z,101113.31
2023-04-25T16:25:25.859Z,101120.59
2023-04-25T16:27:52.497Z,101109.31
2023-04-25T16:30:19.008Z,101127.94
2023-04-25T16:32:45.906Z,101125.25
2023-04-25T16:35:12.620Z,101130.06
2023-04-25T16:37:39.154Z,101137.06
2023-04-25T16:40:08.940Z,101144.19
2023-04-25T16:42:36.333Z,101139.72
2023-04-25T16:45:05.017Z,101132.56
2023-04-25T16:47:32.352Z,101134.72
2023-04-25T16:50:01.275Z,101137.72
2023-04-25T16:52:27.899Z,101145.66
2023-04-25T16:54:54.344Z,101137.19
2023-04-25T16:57:21.191Z,101144.66
2023-04-25T16:59:47.736Z,101136.66
2023-04-25T17:02:15.133Z,101153.41
2023-04-25T17:04:41.848Z,101143.38
2023-04-25T17:07:08.861Z,101150.19
2023-04-25T17:09:35.736Z,101149.88
2023-04-25T17:12:03.721Z,101148.66
2023-04-25T17:14:30.306Z,101138.56
2023-04-25T17:16:56.894Z,101144.88
2023-04-25T17:19:23.316Z,101154.66
2023-04-25T17:21:50.904Z,101155.34
2023-04-25T17:24:18.161Z,101141.69
2023-04-25T17:26:46.788Z,101154.63
2023-04-25T17:29:15.400Z,101159.09
2023-04-25T17:31:42.635Z,101162.78
2023-04-25T17:34:09.813Z,101157.28
2023-04-25T17:36:36.508Z,101146.25
2023-04-25T17:39:06.214Z,101166.34
2023-04-25T17:41:32.611Z,101173.66
2023-04-25T17:43:59.026Z,101167.28
2023-04-25T17:46:26.779Z,101170.28
2023-04-25T17:48:53.610Z,101173.78
2023-04-25T17:51:20.337Z,101175.06
2023-04-25T17:53:46.872Z,101169.41
2023-04-25T17:56:25.910Z,101169.72
2023-04-25T17:58:54.063Z,101176.63
2023-04-25T18:01:21.006Z,101172.13
2023-04-25T18:03:50.010Z,101172.56
2023-04-25T18:06:16.931Z,101175.53
2023-04-25T18:08:44.708Z,101166.00
2023-04-25T18:11:14.462Z,101179.25
2023-04-25T18:13:41.567Z,101182.91
2023-04-25T18:16:08.184Z,101178.91
2023-04-25T18:18:36.090Z,101127.50
2023-04-25T18:21:05.173Z,101177.25
2023-04-25T18:23:35.023Z,101173.81
2023-04-25T18:26:02.710Z,101174.28
2023-04-25T18:28:29.425Z,101177.09
2023-04-25T18:30:56.720Z,101185.25
2023-04-25T18:33:23.421Z,101178.13
2023-04-25T18:35:58.807Z,101182.97
2023-04-25T18:41:04.402Z,101176.78
2023-04-25T18:43:44.358Z,101191.88
2023-04-25T18:46:10.986Z,101180.56
2023-04-25T18:48:37.439Z,101186.56
2023-04-25T18:51:03.974Z,101183.28
2023-04-25T18:53:30.414Z,101174.31
2023-04-25T18:55:57.202Z,101182.09
2023-04-25T18:58:23.628Z,101185.50
2023-04-25T19:00:50.245Z,101190.81
2023-04-25T19:03:17.148Z,101180.53
2023-04-25T19:05:43.831Z,101192.25
2023-04-25T19:08:11.573Z,101192.47
2023-04-25T19:10:38.035Z,101197.09
2023-04-25T19:13:05.004Z,101199.81
2023-04-25T19:15:33.455Z,101206.78
2023-04-25T19:17:59.917Z,101197.78
2023-04-25T19:20:27.382Z,101206.13
2023-04-25T19:22:54.607Z,101210.91
2023-04-25T19:25:21.181Z,101206.03
2023-04-25T19:27:47.750Z,101208.16
2023-04-25T19:30:14.717Z,101204.31
2023-04-25T19:32:41.285Z,101206.84
2023-04-25T19:35:11.370Z,101225.41
2023-04-25T19:37:41.085Z,101214.00
2023-04-25T19:40:08.487Z,101217.75
2023-04-25T19:42:35.466Z,101220.88
2023-04-25T19:45:03.051Z,101217.84
2023-04-25T19:47:29.521Z,101214.34
2023-04-25T19:49:56.017Z,101218.56
2023-04-25T19:52:22.505Z,101221.53
2023-04-25T19:54:49.028Z,101219.47
2023-04-25T19:57:15.479Z,101222.13
2023-04-25T19:59:41.995Z,101229.69
2023-04-25T20:02:10.832Z,101228.31
2023-04-25T20:04:38.644Z,101237.50
2023-04-25T20:07:05.170Z,101232.22
2023-04-25T20:09:31.964Z,101236.69
2023-04-25T20:11:58.406Z,101222.38
2023-04-25T20:14:24.851Z,101227.91
2023-04-25T20:16:51.483Z,101227.59
2023-04-25T20:19:17.973Z,101237.63
2023-04-25T20:21:44.489Z,101238.44
2023-04-25T20:24:11.961Z,101231.63
2023-04-25T20:26:39.734Z,101226.66
2023-04-25T20:29:06.516Z,101236.19
2023-04-25T20:31:36.648Z,101235.22
2023-04-25T20:34:03.673Z,101228.25
2023-04-25T20:36:31.171Z,101230.63
2023-04-25T20:38:58.218Z,101237.72
2023-04-25T20:41:24.681Z,101230.06
2023-04-25T20:43:53.242Z,101234.22
2023-04-25T20:46:20.158Z,101234.06
2023-04-25T20:48:46.781Z,101229.63
2023-04-25T20:51:13.293Z,101216.28
2023-04-25T20:53:39.720Z,101222.56
2023-04-25T20:56:06.744Z,101235.25
2023-04-25T20:58:33.326Z,101226.09
2023-04-25T21:00:59.887Z,101237.25
2023-04-25T21:03:26.782Z,101234.91
2023-04-25T21:05:53.302Z,101232.72
2023-04-25T21:08:22.736Z,101235.94
2023-04-25T21:10:49.357Z,101240.69
2023-04-25T21:13:17.290Z,101239.47
2023-04-25T21:15:44.038Z,101242.25
2023-04-25T21:18:10.645Z,101242.41
2023-04-25T21:20:37.329Z,101237.69
2023-04-25T21:23:03.756Z,101236.84
2023-04-25T21:25:31.636Z,101231.00
2023-04-25T21:27:58.956Z,101232.69
2023-04-25T21:30:26.171Z,101231.28
2023-04-25T21:32:53.278Z,101239.47
2023-04-25T21:35:21.058Z,101244.31
2023-04-25T21:37:48.094Z,101242.81
2023-04-25T21:40:15.582Z,101246.13
2023-04-25T21:42:45.940Z,101252.25
2023-04-25T21:45:12.492Z,101239.75
2023-04-25T21:47:39.394Z,101228.63
2023-04-25T21:50:06.445Z,101230.97
2023-04-25T21:52:36.118Z,101246.72
2023-04-25T21:55:02.633Z,101242.69
2023-04-25T21:57:29.058Z,101249.09
2023-04-25T21:59:55.655Z,101242.13
2023-04-25T22:02:22.259Z,101247.16
2023-04-25T22:04:48.990Z,101236.19
2023-04-25T22:07:15.886Z,101257.34
2023-04-25T22:09:53.637Z,101253.44
2023-04-25T22:12:23.218Z,101253.34
2023-04-25T22:14:50.322Z,101254.44
2023-04-25T22:17:17.768Z,101259.03
2023-04-25T22:19:44.772Z,101266.81
2023-04-25T22:22:11.831Z,101264.19
2023-04-25T22:24:38.729Z,101268.25
2023-04-25T22:27:05.299Z,101260.47
2023-04-25T22:29:31.789Z,101275.19
2023-04-25T22:31:58.572Z,101270.34
2023-04-25T22:34:26.070Z,101277.44
2023-04-25T22:36:53.022Z,101268.25
2023-04-25T22:39:20.521Z,101265.19
2023-04-25T22:41:47.828Z,101275.22
2023-04-25T22:44:14.600Z,101265.03
2023-04-25T22:46:41.131Z,101270.06
2023-04-25T22:49:07.551Z,101275.38
2023-04-25T22:51:33.968Z,101267.84
2023-04-25T22:54:01.533Z,101277.69
2023-04-25T22:56:31.128Z,101278.41
2023-04-25T22:58:57.727Z,101267.13
2023-04-25T23:01:24.993Z,101283.91
2023-04-25T23:03:51.777Z,101283.09
2023-04-25T23:06:18.873Z,101282.25
2023-04-25T23:08:45.346Z,101272.94
2023-04-25T23:11:11.820Z,101280.75
2023-04-25T23:13:38.853Z,101277.25
2023-04-25T23:16:06.774Z,101274.06
2023-04-25T23:18:33.573Z,101268.22
2023-04-25T23:21:01.980Z,101280.06
2023-04-25T23:23:28.826Z,101271.84
2023-04-25T23:25:56.803Z,101281.22
2023-04-25T23:28:23.280Z,101281.75
2023-04-25T23:30:49.718Z,101276.91
2023-04-25T23:33:16.248Z,101266.84
2023-04-25T23:35:42.636Z,101269.78
2023-04-25T23:38:09.404Z,101264.09
2023-04-25T23:40:35.944Z,101264.94
2023-04-25T23:43:03.525Z,101267.16
2023-04-25T23:45:30.339Z,101258.69
2023-04-25T23:47:56.902Z,101269.94
2023-04-25T23:50:23.314Z,101265.63
2023-04-25T23:52:50.800Z,101269.78
2023-04-25T23:55:17.329Z,101274.69
2023-04-25T23:57:44.572Z,101262.69
